Time;durP1;ratioP1;P1;durP2;ratioP2;P2;SDS_P1;SDS_P2;PMS_P1;PMS_P2;Temp;Humidity;BMP_temperature;BMP_pressure;BME280_temperature;BME280_humidity;BME280_pressure;Samples;Min_cycle;Max_cycle;Signal;HPM_P1;HPM_P2
2023/09/08 00:02:14;;;;;;;;;;;24.70;51.80;;;;;;5053786;28;19967;-61
2023/09/08 00:04:41;;;;;;;;;;;24.70;51.80;;;;;;5052753;28;20007;-61
2023/09/08 00:07:08;;;;;;;;;;;24.70;51.80;;;;;;5053633;28;19929;-61
2023/09/08 00:09:35;;;;;;;;;;;24.70;51.90;;;;;;5043626;28;19979;-62
2023/09/08 00:12:02;;;;;;;;;;;24.70;51.90;;;;;;5052911;28;20397;-61
2023/09/08 00:14:29;;;;;;;;;;;24.70;51.90;;;;;;5052071;28;19976;-61
2023/09/08 00:16:56;;;;;;;;;;;24.70;51.90;;;;;;5052557;28;20011;-61
2023/09/08 00:19:23;;;;;;;;;;;24.70;51.90;;;;;;5053205;28;19925;-61
2023/09/08 00:21:50;;;;;;;;;;;24.70;51.90;;;;;;5052980;28;19925;-61
2023/09/08 00:24:18;;;;;;;;;;;24.70;51.80;;;;;;5051856;28;20019;-61
2023/09/08 00:26:45;;;;;;;;;;;24.70;51.80;;;;;;5051804;28;19935;-61
2023/09/08 00:29:12;;;;;;;;;;;24.70;51.80;;;;;;5052704;28;19971;-61
2023/09/08 00:31:39;;;;;;;;;;;24.70;51.70;;;;;;5051585;28;19932;-61
2023/09/08 00:34:06;;;;;;;;;;;24.70;51.70;;;;;;5052725;28;20400;-61
2023/09/08 00:36:33;;;;;;;;;;;24.70;51.70;;;;;;5052258;28;20417;-61
2023/09/08 00:39:00;;;;;;;;;;;24.70;51.70;;;;;;5052987;28;20019;-61
2023/09/08 00:41:27;;;;;;;;;;;24.70;51.70;;;;;;5052694;28;19978;-61
2023/09/08 00:43:54;;;;;;;;;;;24.70;51.70;;;;;;5051239;28;20487;-61
2023/09/08 00:46:21;;;;;;;;;;;24.70;51.70;;;;;;5049854;28;19967;-61
2023/09/08 00:48:48;;;;;;;;;;;24.70;51.70;;;;;;5052932;28;19924;-61
2023/09/08 00:51:15;;;;;;;;;;;24.70;51.70;;;;;;5050979;28;19968;-61
2023/09/08 00:53:42;;;;;;;;;;;24.70;51.70;;;;;;5051852;28;19971;-62
2023/09/08 00:56:10;;;;;;;;;;;24.70;51.80;;;;;;5052334;28;19929;-61
2023/09/08 00:58:37;;;;;;;;;;;24.70;51.80;;;;;;5052546;28;19947;-61
2023/09/08 01:01:05;;;;;;;;;;;24.70;51.80;;;;;;5052919;28;20464;-61
2023/09/08 01:03:32;;;;;;;;;;;24.60;51.80;;;;;;5051706;28;19970;-61
2023/09/08 01:05:59;;;;;;;;;;;24.60;51.80;;;;;;5052647;28;19925;-61
2023/09/08 01:08:27;;;;;;;;;;;24.60;51.80;;;;;;5042486;28;19925;-61
2023/09/08 01:10:54;;;;;;;;;;;24.60;51.90;;;;;;5032705;28;19971;-61
2023/09/08 01:13:21;;;;;;;;;;;24.60;51.90;;;;;;5032011;28;20012;-61
2023/09/08 01:15:49;;;;;;;;;;;24.60;51.80;;;;;;5031528;28;20019;-61
2023/09/08 01:18:16;;;;;;;;;;;24.60;51.80;;;;;;5032485;28;20372;-61
2023/09/08 01:21:03;;;;;;;;;;;24.60;51.80;;;;;;5035474;28;20178;-62
2023/09/08 01:23:43;;;;;;;;;;;24.70;51.80;;;;;;5049910;28;19925;-61
2023/09/08 01:26:13;;;;;;;;;;;24.60;51.80;;;;;;5052085;28;19931;-61
2023/09/08 01:28:40;;;;;;;;;;;24.70;51.70;;;;;;5052665;28;19968;-61
2023/09/08 01:31:07;;;;;;;;;;;24.60;51.60;;;;;;5050779;28;19924;-61
2023/09/08 01:33:35;;;;;;;;;;;24.70;51.70;;;;;;5052963;28;19931;-61
2023/09/08 01:36:02;;;;;;;;;;;24.60;51.60;;;;;;5054463;28;19968;-61
2023/09/08 01:38:30;;;;;;;;;;;24.70;51.70;;;;;;5055987;28;19925;-61
2023/09/08 01:40:57;;;;;;;;;;;24.70;51.70;;;;;;5056168;28;19948;-61
2023/09/08 01:43:24;;;;;;;;;;;24.60;51.60;;;;;;5055081;28;20023;-61
2023/09/08 01:45:51;;;;;;;;;;;24.60;51.60;;;;;;5055168;28;19925;-62
2023/09/08 01:48:18;;;;;;;;;;;24.60;51.70;;;;;;5056615;28;19928;-61
2023/09/08 01:50:46;;;;;;;;;;;24.60;51.70;;;;;;5055032;28;20423;-61
2023/09/08 01:53:13;;;;;;;;;;;24.60;51.70;;;;;;5054160;28;20020;-61
2023/09/08 01:55:40;;;;;;;;;;;24.60;51.70;;;;;;5054428;28;20352;-61
2023/09/08 01:58:07;;;;;;;;;;;24.60;51.80;;;;;;5069977;28;19971;-61
2023/09/08 02:00:34;;;;;;;;;;;24.60;51.80;;;;;;5055170;28;20038;-62
2023/09/08 02:03:01;;;;;;;;;;;24.60;51.80;;;;;;5050953;28;19987;-62
2023/09/08 02:05:28;;;;;;;;;;;24.60;51.80;;;;;;5044851;28;19932;-62
2023/09/08 02:07:56;;;;;;;;;;;24.60;51.80;;;;;;5035633;28;20432;-62
2023/09/08 02:10:23;;;;;;;;;;;24.60;51.90;;;;;;5051807;28;20385;-62
2023/09/08 02:12:50;;;;;;;;;;;24.60;51.90;;;;;;5054582;28;19966;-62
2023/09/08 02:15:17;;;;;;;;;;;24.60;51.90;;;;;;5054923;28;19958;-62
2023/09/08 02:17:44;;;;;;;;;;;24.60;51.80;;;;;;5055583;28;19925;-62
2023/09/08 02:20:11;;;;;;;;;;;24.60;51.80;;;;;;5054974;28;20007;-63
2023/09/08 02:22:38;;;;;;;;;;;24.60;51.80;;;;;;5039292;28;20016;-62
2023/09/08 02:25:05;;;;;;;;;;;24.60;51.70;;;;;;5046373;28;19969;-62
2023/09/08 02:27:32;;;;;;;;;;;24.60;51.70;;;;;;5034376;28;20262;-62
2023/09/08 02:29:59;;;;;;;;;;;24.60;51.70;;;;;;5046818;28;20329;-62
2023/09/08 02:32:26;;;;;;;;;;;24.60;51.60;;;;;;5054925;28;19935;-63
2023/09/08 02:34:53;;;;;;;;;;;24.60;51.60;;;;;;5054416;28;20289;-62
2023/09/08 02:37:20;;;;;;;;;;;24.60;51.60;;;;;;5054459;28;19931;-62
2023/09/08 02:39:47;;;;;;;;;;;24.60;51.60;;;;;;5054981;28;19928;-62
2023/09/08 02:42:14;;;;;;;;;;;24.60;51.70;;;;;;5041573;28;20028;-62
2023/09/08 02:44:41;;;;;;;;;;;24.60;51.70;;;;;;5034600;28;19931;-62
2023/09/08 02:47:10;;;;;;;;;;;24.60;51.70;;;;;;5033903;28;20447;-63
2023/09/08 02:49:37;;;;;;;;;;;24.60;51.80;;;;;;5035571;28;19964;-62
2023/09/08 02:52:04;;;;;;;;;;;24.50;51.70;;;;;;5035138;28;19932;-62
2023/09/08 02:54:30;;;;;;;;;;;24.50;51.70;;;;;;5034680;28;20293;-62
2023/09/08 02:56:58;;;;;;;;;;;24.50;51.80;;;;;;5041683;28;19925;-62
2023/09/08 02:59:24;;;;;;;;;;;24.50;51.80;;;;;;5053662;28;20007;-62
2023/09/08 03:01:51;;;;;;;;;;;24.50;51.80;;;;;;5054452;28;19924;-62
2023/09/08 03:04:19;;;;;;;;;;;24.50;51.80;;;;;;5053729;28;19947;-62
2023/09/08 03:06:46;;;;;;;;;;;24.50;52.40;;;;;;5054706;28;19924;-62
2023/09/08 03:09:13;;;;;;;;;;;24.50;51.80;;;;;;5054820;28;20388;-62
2023/09/08 03:11:40;;;;;;;;;;;24.50;51.80;;;;;;5053948;28;20007;-62
2023/09/08 03:14:06;;;;;;;;;;;24.50;51.80;;;;;;5053897;28;19932;-62
2023/09/08 03:16:34;;;;;;;;;;;24.50;51.70;;;;;;5054832;28;19995;-62
2023/09/08 03:19:01;;;;;;;;;;;24.50;51.70;;;;;;5054609;28;19929;-62
2023/09/08 03:21:27;;;;;;;;;;;24.50;51.60;;;;;;5054655;28;20015;-62
2023/09/08 03:23:55;;;;;;;;;;;24.50;51.60;;;;;;5054497;28;19935;-62
2023/09/08 03:26:21;;;;;;;;;;;24.50;51.50;;;;;;5054393;28;20020;-62
2023/09/08 03:28:48;;;;;;;;;;;24.50;51.50;;;;;;5053256;28;20015;-62
2023/09/08 03:31:15;;;;;;;;;;;24.60;51.60;;;;;;5053091;28;19964;-62
2023/09/08 03:33:42;;;;;;;;;;;24.60;51.60;;;;;;5053889;28;19975;-62
2023/09/08 03:36:09;;;;;;;;;;;24.60;51.60;;;;;;5052000;28;19928;-62
2023/09/08 03:38:37;;;;;;;;;;;24.50;51.60;;;;;;5054377;28;19929;-62
2023/09/08 03:41:06;;;;;;;;;;;24.50;51.60;;;;;;5054453;28;19925;-62
2023/09/08 03:43:32;;;;;;;;;;;24.50;51.60;;;;;;5053506;28;19925;-62
2023/09/08 03:46:00;;;;;;;;;;;24.50;51.60;;;;;;5054059;28;19925;-62
2023/09/08 03:48:27;;;;;;;;;;;24.50;51.70;;;;;;5054013;28;19935;-62
2023/09/08 03:50:54;;;;;;;;;;;24.50;51.70;;;;;;5053610;28;19928;-62
2023/09/08 03:53:21;;;;;;;;;;;24.50;51.70;;;;;;5053831;28;20383;-62
2023/09/08 03:55:48;;;;;;;;;;;24.50;51.70;;;;;;5052629;28;19982;-62
2023/09/08 03:58:15;;;;;;;;;;;24.50;51.80;;;;;;5053658;28;19924;-62
2023/09/08 04:00:42;;;;;;;;;;;24.50;51.80;;;;;;5052140;28;20416;-62
2023/09/08 04:03:09;;;;;;;;;;;24.40;51.80;;;;;;5052537;28;19925;-62
2023/09/08 04:05:36;;;;;;;;;;;24.50;51.80;;;;;;5036011;28;19931;-62
2023/09/08 04:08:03;;;;;;;;;;;24.50;51.80;;;;;;5033704;28;20408;-62
2023/09/08 04:10:30;;;;;;;;;;;24.50;52.30;;;;;;5033797;28;19973;-62
2023/09/08 04:12:57;;;;;;;;;;;24.50;51.70;;;;;;5033821;28;19929;-62
2023/09/08 04:15:24;;;;;;;;;;;24.50;51.70;;;;;;5032716;28;20059;-62
2023/09/08 04:17:51;;;;;;;;;;;24.50;51.60;;;;;;5038595;28;20488;-62
2023/09/08 04:20:18;;;;;;;;;;;24.50;51.50;;;;;;5047100;28;19976;-62
2023/09/08 04:22:46;;;;;;;;;;;24.50;51.50;;;;;;5074118;28;20402;-62
2023/09/08 04:25:13;;;;;;;;;;;24.60;51.50;;;;;;5042664;28;20373;-63
2023/09/08 04:27:40;;;;;;;;;;;24.50;51.40;;;;;;5043856;28;19983;-62
2023/09/08 04:30:08;;;;;;;;;;;24.50;51.40;;;;;;5041267;28;20399;-62
2023/09/08 04:32:37;;;;;;;;;;;24.50;51.40;;;;;;5042781;28;19929;-62
2023/09/08 04:35:05;;;;;;;;;;;24.50;51.30;;;;;;5040880;28;19925;-62
2023/09/08 04:37:34;;;;;;;;;;;24.50;51.40;;;;;;5041334;28;19924;-62
2023/09/08 04:40:01;;;;;;;;;;;24.50;51.40;;;;;;5048605;28;19964;-61
2023/09/08 04:42:29;;;;;;;;;;;24.40;51.30;;;;;;5039899;28;19987;-62
2023/09/08 04:44:56;;;;;;;;;;;24.20;51.50;;;;;;5041979;28;19924;-62
2023/09/08 04:47:22;;;;;;;;;;;24.00;51.80;;;;;;5052848;28;19971;-61
2023/09/08 04:49:49;;;;;;;;;;;23.80;52.30;;;;;;5052795;28;19983;-62
2023/09/08 04:52:16;;;;;;;;;;;23.60;52.50;;;;;;5053076;28;19931;-62
2023/09/08 04:54:43;;;;;;;;;;;23.30;51.40;;;;;;5046413;28;20343;-62
2023/09/08 04:57:10;;;;;;;;;;;23.00;50.40;;;;;;5052901;28;19926;-61
2023/09/08 04:59:49;;;;;;;;;;;22.70;49.50;;;;;;5053148;28;20414;-62
2023/09/08 05:02:18;;;;;;;;;;;22.40;49.40;;;;;;5046146;28;19979;-62
2023/09/08 05:04:45;;;;;;;;;;;22.10;48.90;;;;;;5044117;28;19931;-62
2023/09/08 05:07:13;;;;;;;;;;;21.80;50.00;;;;;;5037492;28;19925;-62
2023/09/08 05:09:40;;;;;;;;;;;21.50;49.70;;;;;;5043982;28;19925;-61
2023/09/08 05:12:07;;;;;;;;;;;21.20;50.20;;;;;;5036374;28;19932;-61
2023/09/08 05:14:34;;;;;;;;;;;20.90;51.10;;;;;;5036421;28;19933;-61
2023/09/08 05:17:01;;;;;;;;;;;20.70;51.00;;;;;;5036661;28;19979;-62
2023/09/08 05:19:29;;;;;;;;;;;20.50;51.20;;;;;;5035579;28;19929;-62
2023/09/08 05:21:56;;;;;;;;;;;20.30;52.00;;;;;;5063958;28;19931;-62
2023/09/08 05:24:25;;;;;;;;;;;20.20;50.80;;;;;;5055430;28;19932;-63
2023/09/08 05:26:52;;;;;;;;;;;20.00;52.40;;;;;;5053633;28;19932;-62
2023/09/08 05:29:19;;;;;;;;;;;19.90;52.00;;;;;;5051487;28;19925;-62
2023/09/08 05:31:46;;;;;;;;;;;19.80;51.30;;;;;;5029080;28;19943;-62
2023/09/08 05:34:13;;;;;;;;;;;19.80;52.10;;;;;;5044522;28;19937;-62
2023/09/08 05:36:42;;;;;;;;;;;19.70;53.00;;;;;;5046608;28;19931;-62
2023/09/08 05:39:10;;;;;;;;;;;19.60;52.70;;;;;;5047502;28;19925;-62
2023/09/08 05:41:37;;;;;;;;;;;19.50;51.40;;;;;;5042221;28;19935;-64
2023/09/08 05:44:05;;;;;;;;;;;19.40;54.40;;;;;;5046049;28;19976;-64
2023/09/08 05:46:32;;;;;;;;;;;19.40;52.80;;;;;;5040351;28;20312;-62
2023/09/08 05:48:59;;;;;;;;;;;19.30;51.60;;;;;;5043766;28;19933;-66
2023/09/08 05:51:26;;;;;;;;;;;19.20;52.40;;;;;;5043200;28;19929;-67
2023/09/08 05:53:53;;;;;;;;;;;19.20;54.70;;;;;;5039853;28;20470;-65
2023/09/08 05:56:24;;;;;;;;;;;19.20;52.90;;;;;;5042449;28;19932;-66
2023/09/08 05:58:52;;;;;;;;;;;19.10;52.20;;;;;;5039906;28;19929;-65
2023/09/08 06:01:19;;;;;;;;;;;19.10;54.20;;;;;;5037687;28;19982;-66
2023/09/08 06:03:48;;;;;;;;;;;19.10;53.00;;;;;;5042374;28;19929;-64
2023/09/08 06:06:15;;;;;;;;;;;19.00;52.50;;;;;;5039666;28;19933;-64
2023/09/08 06:08:42;;;;;;;;;;;19.00;53.00;;;;;;5039944;28;19932;-64
2023/09/08 06:11:09;;;;;;;;;;;19.00;53.90;;;;;;5040975;28;19933;-64
2023/09/08 06:13:37;;;;;;;;;;;19.00;53.00;;;;;;5044789;28;19933;-63
2023/09/08 06:16:04;;;;;;;;;;;19.00;54.20;;;;;;5046100;28;19929;-63
2023/09/08 06:18:31;;;;;;;;;;;19.00;53.40;;;;;;5037024;28;19935;-63
2023/09/08 06:20:59;;;;;;;;;;;19.00;53.00;;;;;;5036996;28;20374;-62
2023/09/08 06:23:30;;;;;;;;;;;19.00;53.00;;;;;;5039147;28;19933;-63
2023/09/08 06:25:59;;;;;;;;;;;18.90;53.60;;;;;;5053601;28;20373;-64
2023/09/08 06:28:27;;;;;;;;;;;18.90;53.60;;;;;;5045473;28;19979;-63
2023/09/08 06:30:55;;;;;;;;;;;19.00;52.80;;;;;;5044472;28;19943;-62
2023/09/08 06:33:22;;;;;;;;;;;19.00;53.70;;;;;;5043886;28;19935;-62
2023/09/08 06:35:49;;;;;;;;;;;19.00;55.10;;;;;;5042713;28;20023;-62
2023/09/08 06:38:16;;;;;;;;;;;19.00;53.70;;;;;;5047007;28;20308;-63
2023/09/08 06:40:43;;;;;;;;;;;19.00;53.00;;;;;;5045609;28;19925;-64
2023/09/08 06:43:10;;;;;;;;;;;19.00;53.40;;;;;;5038233;28;20023;-60
2023/09/08 06:45:38;;;;;;;;;;;19.00;54.20;;;;;;5043705;28;19925;-61
2023/09/08 06:48:06;;;;;;;;;;;19.00;54.70;;;;;;5048193;28;19929;-62
2023/09/08 06:50:33;;;;;;;;;;;19.00;53.70;;;;;;5044231;28;20020;-62
2023/09/08 06:53:01;;;;;;;;;;;19.00;53.40;;;;;;5046953;28;19925;-64
2023/09/08 06:55:28;;;;;;;;;;;19.00;53.70;;;;;;5046107;28;19937;-66
2023/09/08 06:57:55;;;;;;;;;;;19.00;54.40;;;;;;5050161;28;19929;-64
2023/09/08 07:00:22;;;;;;;;;;;19.00;54.10;;;;;;5048982;28;20023;-65
2023/09/08 07:02:49;;;;;;;;;;;19.00;54.60;;;;;;5046611;28;19956;-65
2023/09/08 07:05:17;;;;;;;;;;;19.00;54.10;;;;;;5046534;28;19928;-65
2023/09/08 07:07:45;;;;;;;;;;;19.00;54.10;;;;;;5048355;28;19925;-67
2023/09/08 07:10:13;;;;;;;;;;;19.00;54.20;;;;;;5048372;28;20381;-64
2023/09/08 07:12:41;;;;;;;;;;;19.00;54.30;;;;;;5048248;28;19933;-65
2023/09/08 07:15:09;;;;;;;;;;;19.00;54.10;;;;;;5045702;28;20020;-63
2023/09/08 07:17:36;;;;;;;;;;;19.00;54.70;;;;;;5043714;28;19936;-60
2023/09/08 07:20:04;;;;;;;;;;;19.10;54.40;;;;;;5042823;28;19965;-60
2023/09/08 07:22:31;;;;;;;;;;;19.10;54.90;;;;;;5042406;28;19929;-60
2023/09/08 07:24:58;;;;;;;;;;;19.10;56.00;;;;;;5040094;28;19932;-62
2023/09/08 07:27:25;;;;;;;;;;;19.10;55.50;;;;;;5046870;28;20029;-62
2023/09/08 07:29:53;;;;;;;;;;;19.00;55.00;;;;;;5044202;28;19979;-63
2023/09/08 07:32:20;;;;;;;;;;;19.10;55.40;;;;;;5044011;28;19998;-62
2023/09/08 07:34:52;;;;;;;;;;;19.10;56.70;;;;;;5042481;28;19925;-66
2023/09/08 07:37:19;;;;;;;;;;;19.10;57.50;;;;;;5043238;28;19935;-63
2023/09/08 07:39:46;;;;;;;;;;;19.10;57.20;;;;;;5044549;28;19978;-65
2023/09/08 07:42:13;;;;;;;;;;;19.20;58.70;;;;;;5040606;28;19956;-65
2023/09/08 07:44:40;;;;;;;;;;;19.20;58.60;;;;;;5059696;28;20458;-65
2023/09/08 07:47:07;;;;;;;;;;;19.20;58.30;;;;;;5038797;28;19928;-65
2023/09/08 07:49:34;;;;;;;;;;;19.20;58.60;;;;;;5044699;28;19937;-65
2023/09/08 07:52:04;;;;;;;;;;;19.20;58.30;;;;;;5045008;28;19975;-67
2023/09/08 07:54:31;;;;;;;;;;;19.20;58.70;;;;;;5046664;28;20407;-65
2023/09/08 07:56:58;;;;;;;;;;;19.30;58.40;;;;;;5042393;28;20045;-67
2023/09/08 07:59:25;;;;;;;;;;;19.30;59.10;;;;;;5044405;28;19937;-66
2023/09/08 08:01:52;;;;;;;;;;;19.30;59.10;;;;;;5043269;28;20020;-65
2023/09/08 08:04:19;;;;;;;;;;;19.30;58.80;;;;;;5043360;28;19933;-64
2023/09/08 08:06:47;;;;;;;;;;;19.30;58.90;;;;;;5041176;28;19929;-63
2023/09/08 08:09:14;;;;;;;;;;;19.30;59.10;;;;;;5045605;28;19978;-65
2023/09/08 08:11:41;;;;;;;;;;;19.30;59.20;;;;;;5044992;28;19943;-67
2023/09/08 08:14:08;;;;;;;;;;;19.30;59.00;;;;;;5042432;28;19929;-67
2023/09/08 08:16:36;;;;;;;;;;;19.40;58.40;;;;;;5048405;28;19928;-66
2023/09/08 08:19:03;;;;;;;;;;;19.40;58.00;;;;;;5042862;28;20374;-66
2023/09/08 08:21:30;;;;;;;;;;;19.40;58.40;;;;;;5045848;28;20018;-66
2023/09/08 08:23:57;;;;;;;;;;;19.40;58.90;;;;;;5045581;28;20038;-66
2023/09/08 08:26:28;;;;;;;;;;;19.40;58.40;;;;;;5048592;28;20003;-67
2023/09/08 08:28:56;;;;;;;;;;;19.40;58.90;;;;;;5043641;28;19925;-64
2023/09/08 08:31:24;;;;;;;;;;;19.40;59.40;;;;;;5040524;28;19928;-64
2023/09/08 08:33:51;;;;;;;;;;;19.40;60.30;;;;;;5046505;28;19952;-63
2023/09/08 08:36:18;;;;;;;;;;;19.50;60.00;;;;;;5043364;28;20460;-64
2023/09/08 08:38:45;;;;;;;;;;;19.50;60.00;;;;;;5042579;28;19933;-64
2023/09/08 08:41:13;;;;;;;;;;;19.60;59.90;;;;;;5039321;28;19932;-65
2023/09/08 08:43:51;;;;;;;;;;;19.60;59.90;;;;;;5037802;28;19933;-63
2023/09/08 08:46:21;;;;;;;;;;;19.60;59.40;;;;;;5039214;28;20007;-64
2023/09/08 08:48:49;;;;;;;;;;;19.70;59.30;;;;;;5043209;28;19951;-64
2023/09/08 08:51:17;;;;;;;;;;;19.70;60.10;;;;;;5052036;28;19964;-65
2023/09/08 08:53:45;;;;;;;;;;;19.70;59.60;;;;;;5044028;28;19932;-64
2023/09/08 08:56:12;;;;;;;;;;;19.70;59.70;;;;;;5047442;28;19925;-64
2023/09/08 08:58:39;;;;;;;;;;;19.70;58.80;;;;;;5045571;28;20411;-63
2023/09/08 09:01:07;;;;;;;;;;;19.80;58.80;;;;;;5044142;28;19925;-62
2023/09/08 09:03:37;;;;;;;;;;;19.80;58.90;;;;;;5046414;28;20352;-66
2023/09/08 09:06:05;;;;;;;;;;;19.80;58.40;;;;;;5054659;28;19929;-65
2023/09/08 09:08:32;;;;;;;;;;;19.80;59.20;;;;;;5042932;28;20007;-63
2023/09/08 09:10:59;;;;;;;;;;;19.80;59.10;;;;;;5047524;28;20443;-64
2023/09/08 09:13:26;;;;;;;;;;;19.80;59.70;;;;;;5040037;28;19972;-63
2023/09/08 09:15:57;;;;;;;;;;;19.90;59.30;;;;;;5043533;28;19982;-64
2023/09/08 09:18:26;;;;;;;;;;;19.90;59.20;;;;;;5044879;28;20028;-62
2023/09/08 09:20:55;;;;;;;;;;;19.90;58.60;;;;;;5041233;28;19925;-63
2023/09/08 09:23:29;;;;;;;;;;;19.90;57.90;;;;;;5043365;28;20331;-62
2023/09/08 09:25:57;;;;;;;;;;;20.00;59.20;;;;;;5043714;28;19947;-62
2023/09/08 09:28:24;;;;;;;;;;;20.00;58.90;;;;;;5041609;28;19932;-63
2023/09/08 09:30:54;;;;;;;;;;;20.00;59.00;;;;;;5039455;28;20034;-63
2023/09/08 09:33:22;;;;;;;;;;;20.00;59.00;;;;;;5046593;28;19978;-63
2023/09/08 09:35:51;;;;;;;;;;;20.00;59.00;;;;;;5040073;28;19956;-62
2023/09/08 09:38:19;;;;;;;;;;;20.00;58.20;;;;;;5042248;28;19929;-63
2023/09/08 09:40:46;;;;;;;;;;;20.00;59.50;;;;;;5044039;28;19972;-67
2023/09/08 09:43:13;;;;;;;;;;;20.10;59.40;;;;;;5043934;28;19924;-66
2023/09/08 09:45:41;;;;;;;;;;;20.10;59.70;;;;;;5038505;28;19932;-68
2023/09/08 09:48:10;;;;;;;;;;;20.10;59.30;;;;;;5040146;28;19936;-67
2023/09/08 09:50:39;;;;;;;;;;;20.10;59.30;;;;;;5044208;28;19974;-64
2023/09/08 09:53:11;;;;;;;;;;;20.10;58.90;;;;;;5048420;28;20412;-64
2023/09/08 09:55:39;;;;;;;;;;;20.10;58.00;;;;;;5047071;28;19936;-64
2023/09/08 09:58:06;;;;;;;;;;;20.20;57.40;;;;;;5052497;28;20388;-64
2023/09/08 10:00:34;;;;;;;;;;;20.20;57.40;;;;;;5043678;28;19975;-65
2023/09/08 10:03:02;;;;;;;;;;;20.20;58.60;;;;;;5045237;28;19933;-64
2023/09/08 10:05:29;;;;;;;;;;;20.20;58.40;;;;;;5048990;28;19939;-64
2023/09/08 10:07:57;;;;;;;;;;;20.10;58.20;;;;;;5044852;28;19925;-63
2023/09/08 10:10:26;;;;;;;;;;;20.10;58.30;;;;;;5042389;28;19924;-64
2023/09/08 10:12:54;;;;;;;;;;;20.10;58.00;;;;;;5041800;28;20293;-63
2023/09/08 10:15:22;;;;;;;;;;;20.10;57.80;;;;;;5042057;28;19990;-64
2023/09/08 10:17:55;;;;;;;;;;;20.10;56.50;;;;;;5045974;28;19976;-64
2023/09/08 10:20:23;;;;;;;;;;;20.10;57.80;;;;;;5045731;28;19965;-64
2023/09/08 10:22:53;;;;;;;;;;;20.10;57.40;;;;;;5048330;28;19932;-64
2023/09/08 10:25:21;;;;;;;;;;;20.00;57.80;;;;;;5049101;28;20011;-64
2023/09/08 10:27:48;;;;;;;;;;;20.00;56.30;;;;;;5045463;28;20299;-64
2023/09/08 10:30:16;;;;;;;;;;;20.00;57.30;;;;;;5049818;28;19925;-64
2023/09/08 10:32:43;;;;;;;;;;;20.00;57.00;;;;;;5044460;28;19925;-65
2023/09/08 10:35:10;;;;;;;;;;;20.00;57.40;;;;;;5047075;28;19963;-62
2023/09/08 10:37:40;;;;;;;;;;;20.00;56.10;;;;;;5043551;28;19924;-62
2023/09/08 10:40:24;;;;;;;;;;;20.00;56.30;;;;;;5045266;28;19929;-62
2023/09/08 10:43:07;;;;;;;;;;;20.00;57.70;;;;;;5049280;28;19925;-61
2023/09/08 10:45:34;;;;;;;;;;;20.00;57.30;;;;;;5045007;28;19933;-61
2023/09/08 10:48:02;;;;;;;;;;;20.00;57.40;;;;;;5044649;28;20249;-61
2023/09/08 10:50:31;;;;;;;;;;;20.00;56.30;;;;;;5045414;28;19972;-62
2023/09/08 10:53:05;;;;;;;;;;;20.00;54.70;;;;;;5041340;28;19929;-62
2023/09/08 10:55:36;;;;;;;;;;;20.00;56.60;;;;;;5042237;28;19943;-62
2023/09/08 10:58:03;;;;;;;;;;;20.00;55.70;;;;;;5041897;28;20423;-61
2023/09/08 11:00:43;;;;;;;;;;;20.00;55.00;;;;;;5046475;28;19924;-63
2023/09/08 11:03:10;;;;;;;;;;;20.00;55.90;;;;;;5044506;28;19964;-63
2023/09/08 11:05:37;;;;;;;;;;;20.00;56.20;;;;;;5045966;28;19925;-63
2023/09/08 11:08:04;;;;;;;;;;;20.00;55.60;;;;;;5042692;28;19960;-63
2023/09/08 11:10:32;;;;;;;;;;;20.00;55.50;;;;;;5043388;28;20619;-66
2023/09/08 11:13:00;;;;;;;;;;;20.00;55.80;;;;;;5045804;28;20012;-64
2023/09/08 11:15:26;;;;;;;;;;;20.00;55.70;;;;;;5046239;28;19932;-63
2023/09/08 11:17:54;;;;;;;;;;;20.00;55.20;;;;;;5044113;28;19932;-61
2023/09/08 11:20:26;;;;;;;;;;;20.00;55.80;;;;;;5045262;28;20208;-67
2023/09/08 11:22:54;;;;;;;;;;;20.00;55.10;;;;;;5046784;28;20656;-64
2023/09/08 11:25:21;;;;;;;;;;;20.00;55.20;;;;;;5047291;28;20019;-63
2023/09/08 11:27:50;;;;;;;;;;;20.00;55.20;;;;;;5047941;28;19950;-64
2023/09/08 11:30:17;;;;;;;;;;;20.00;54.60;;;;;;5041490;28;19925;-63
2023/09/08 11:32:45;;;;;;;;;;;20.00;54.10;;;;;;5040805;28;20395;-62
2023/09/08 11:35:13;;;;;;;;;;;20.00;55.20;;;;;;5042281;28;19947;-63
2023/09/08 11:37:41;;;;;;;;;;;20.00;55.70;;;;;;5044754;28;19933;-63
2023/09/08 11:40:10;;;;;;;;;;;20.00;56.10;;;;;;5045945;28;19928;-63
2023/09/08 11:42:37;;;;;;;;;;;20.10;56.10;;;;;;5043951;28;19937;-63
2023/09/08 11:45:05;;;;;;;;;;;20.10;55.60;;;;;;5046682;28;19983;-63
2023/09/08 11:47:32;;;;;;;;;;;20.10;55.60;;;;;;5042506;28;19960;-63
2023/09/08 11:49:59;;;;;;;;;;;20.10;56.00;;;;;;5045675;28;19979;-61
2023/09/08 11:52:26;;;;;;;;;;;20.20;55.30;;;;;;5044962;28;19931;-62
2023/09/08 11:54:54;;;;;;;;;;;20.20;55.40;;;;;;5046473;28;20711;-62
2023/09/08 11:57:34;;;;;;;;;;;20.20;55.60;;;;;;5045590;28;19925;-62
2023/09/08 12:00:05;;;;;;;;;;;20.20;55.40;;;;;;5043246;28;19929;-62
2023/09/08 12:02:36;;;;;;;;;;;20.20;55.70;;;;;;5047422;28;20022;-64
2023/09/08 12:05:04;;;;;;;;;;;20.20;55.60;;;;;;5051865;28;19974;-63
2023/09/08 12:07:31;;;;;;;;;;;20.30;55.70;;;;;;5056186;28;19999;-63
2023/09/08 12:09:58;;;;;;;;;;;20.30;56.70;;;;;;5051621;28;19925;-66
2023/09/08 12:12:26;;;;;;;;;;;20.30;56.50;;;;;;5053919;28;20416;-65
2023/09/08 12:14:53;;;;;;;;;;;20.30;56.70;;;;;;5039243;28;19932;-64
2023/09/08 12:17:24;;;;;;;;;;;20.40;56.50;;;;;;5041877;28;19940;-63
2023/09/08 12:19:51;;;;;;;;;;;20.40;57.00;;;;;;5042992;28;19932;-64
2023/09/08 12:22:22;;;;;;;;;;;20.40;57.50;;;;;;5045648;28;19925;-65
2023/09/08 12:24:56;;;;;;;;;;;20.40;58.30;;;;;;5043188;28;19947;-62
2023/09/08 12:27:24;;;;;;;;;;;20.50;57.90;;;;;;5042047;28;19932;-63
2023/09/08 12:29:52;;;;;;;;;;;20.50;57.30;;;;;;5042114;28;19975;-63
2023/09/08 12:32:20;;;;;;;;;;;20.50;57.30;;;;;;5049582;28;19978;-63
2023/09/08 12:34:47;;;;;;;;;;;20.50;57.30;;;;;;5047674;28;19925;-64
2023/09/08 12:37:14;;;;;;;;;;;20.60;56.90;;;;;;5052556;28;20365;-64
2023/09/08 12:39:41;;;;;;;;;;;20.60;56.50;;;;;;5052219;28;19925;-62
2023/09/08 12:42:07;;;;;;;;;;;20.60;56.50;;;;;;5052485;28;19925;-62
2023/09/08 12:44:34;;;;;;;;;;;20.60;56.60;;;;;;5052998;28;19932;-62
2023/09/08 12:47:02;;;;;;;;;;;20.60;56.60;;;;;;5051548;28;19964;-62
2023/09/08 12:49:29;;;;;;;;;;;20.50;56.20;;;;;;5051606;28;19925;-62
2023/09/08 12:51:56;;;;;;;;;;;20.50;56.50;;;;;;5051172;28;19951;-62
2023/09/08 12:54:24;;;;;;;;;;;20.50;56.80;;;;;;5052265;28;19935;-61
2023/09/08 12:56:51;;;;;;;;;;;20.50;56.40;;;;;;5050255;28;19929;-60
2023/09/08 12:59:18;;;;;;;;;;;20.50;56.50;;;;;;5048071;28;20398;-61
2023/09/08 13:01:45;;;;;;;;;;;20.50;56.10;;;;;;5050847;28;19959;-64
2023/09/08 13:04:12;;;;;;;;;;;20.50;56.30;;;;;;5049594;28;20258;-61
2023/09/08 13:06:39;;;;;;;;;;;20.40;56.60;;;;;;5051825;28;20337;-62
2023/09/08 13:09:08;;;;;;;;;;;20.40;56.60;;;;;;5051538;28;19932;-61
2023/09/08 13:11:35;;;;;;;;;;;20.40;56.60;;;;;;5051204;28;20329;-62
2023/09/08 13:14:02;;;;;;;;;;;20.40;56.80;;;;;;5052224;28;19968;-63
2023/09/08 13:16:29;;;;;;;;;;;20.40;56.50;;;;;;5051706;28;20023;-63
2023/09/08 13:18:56;;;;;;;;;;;20.40;56.60;;;;;;5052777;28;19932;-62
2023/09/08 13:21:23;;;;;;;;;;;20.40;56.60;;;;;;5052841;28;19928;-62
2023/09/08 13:23:50;;;;;;;;;;;20.40;56.70;;;;;;5052875;28;19987;-63
2023/09/08 13:26:17;;;;;;;;;;;20.40;56.70;;;;;;5052367;28;20429;-62
2023/09/08 13:28:44;;;;;;;;;;;20.40;56.30;;;;;;5053067;28;19925;-63
2023/09/08 13:31:11;;;;;;;;;;;20.40;56.60;;;;;;5054253;28;19925;-62
2023/09/08 13:33:39;;;;;;;;;;;20.30;56.10;;;;;;5056448;28;20296;-62
2023/09/08 13:36:06;;;;;;;;;;;20.40;56.70;;;;;;5056450;28;20288;-62
2023/09/08 13:38:33;;;;;;;;;;;20.30;56.30;;;;;;5056214;28;19936;-62
2023/09/08 13:41:01;;;;;;;;;;;20.30;56.50;;;;;;5056124;28;19931;-62
2023/09/08 13:43:28;;;;;;;;;;;20.30;56.40;;;;;;5056293;28;20347;-62
2023/09/08 13:45:55;;;;;;;;;;;20.30;56.40;;;;;;5056143;28;19925;-63
2023/09/08 13:48:22;;;;;;;;;;;20.30;56.20;;;;;;5056285;28;19928;-62
2023/09/08 13:50:51;;;;;;;;;;;20.30;56.50;;;;;;5056398;28;19925;-62
2023/09/08 13:53:20;;;;;;;;;;;20.30;56.20;;;;;;5056226;28;20403;-63
2023/09/08 13:55:48;;;;;;;;;;;20.30;56.50;;;;;;5056122;28;19925;-63
2023/09/08 13:58:17;;;;;;;;;;;20.20;56.40;;;;;;5056405;28;19924;-63
2023/09/08 14:00:48;;;;;;;;;;;20.20;56.50;;;;;;5056093;28;19925;-63
2023/09/08 14:03:19;;;;;;;;;;;20.20;56.60;;;;;;5055912;28;19924;-63
2023/09/08 14:05:48;;;;;;;;;;;20.20;60.30;;;;;;5055891;28;19929;-63
2023/09/08 14:08:20;;;;;;;;;;;20.40;67.40;;;;;;5055967;28;19931;-62
2023/09/08 14:10:55;;;;;;;;;;;20.60;71.70;;;;;;5054945;28;20266;-63
2023/09/08 14:13:25;;;;;;;;;;;20.90;72.30;;;;;;5055897;28;19998;-63
2023/09/08 14:15:52;;;;;;;;;;;21.20;72.90;;;;;;5055640;28;20525;-63
2023/09/08 14:18:20;;;;;;;;;;;21.40;72.90;;;;;;5055675;28;19947;-62
2023/09/08 14:20:46;;;;;;;;;;;21.70;72.60;;;;;;5054768;28;20016;-62